createdAt,value
2023-02-25T00:11:59.218Z,4.5
2023-02-25T00:27:09.134Z,4.1
2023-02-25T00:42:19.755Z,3.9
2023-02-25T00:57:29.108Z,5.3
2023-02-25T01:12:38.724Z,4.8
2023-02-25T01:27:48.399Z,4.6
2023-02-25T01:42:58.289Z,4.7
2023-02-25T01:58:07.584Z,4.1
2023-02-25T02:13:17.049Z,3.5
2023-02-25T02:28:26.808Z,3.8
2023-02-25T02:43:36.371Z,3.5
2023-02-25T02:58:46.047Z,3
2023-02-25T03:13:55.429Z,2.6
2023-02-25T03:29:04.561Z,3.2
2023-02-25T03:44:14.500Z,3.1
2023-02-25T03:59:24.120Z,2.4
2023-02-25T04:14:33.484Z,2.8
2023-02-25T04:29:43.068Z,3.1
2023-02-25T04:44:52.284Z,2.5
2023-02-25T05:00:02.061Z,2.4
2023-02-25T05:15:11.848Z,2.5
2023-02-25T05:30:22.489Z,2.2
2023-02-25T05:45:31.933Z,2
2023-02-25T06:00:41.682Z,2
2023-02-25T06:15:51.774Z,1.7
2023-02-25T06:31:01.336Z,1.6
2023-02-25T06:46:12.450Z,1.9
2023-02-25T07:01:23.132Z,1.5
2023-02-25T07:16:33.395Z,1.5
2023-02-25T07:31:43.740Z,1.7
2023-02-25T07:46:54.017Z,1.7
2023-02-25T08:02:04.288Z,1.7
2023-02-25T08:17:15.086Z,1.5
2023-02-25T08:32:25.146Z,1.5
2023-02-25T08:47:35.359Z,1.8
2023-02-25T09:02:45.021Z,1.7
2023-02-25T09:17:54.710Z,2.3
2023-02-25T09:33:04.505Z,1.8
2023-02-25T09:48:14.919Z,1.5
2023-02-25T10:03:24.772Z,1.8
2023-02-25T10:18:34.803Z,1.4
2023-02-25T10:33:45.133Z,2.1
2023-02-25T10:48:54.821Z,1.5
2023-02-25T11:04:04.551Z,2
2023-02-25T11:19:14.130Z,1.6
2023-02-25T11:34:23.843Z,1.9
2023-02-25T11:49:33.825Z,1.6
2023-02-25T12:04:43.649Z,1.6
2023-02-25T12:19:52.998Z,1.9
2023-02-25T12:36:09.938Z,1.9
2023-02-25T12:51:20.178Z,1.6
2023-02-25T13:06:29.921Z,1.7
2023-02-25T13:21:38.806Z,2
2023-02-25T13:36:48.332Z,1.6
2023-02-25T13:51:57.243Z,1.6
2023-02-25T14:07:08.072Z,1.7
2023-02-25T14:22:17.014Z,2.2
2023-02-25T14:37:27.063Z,1.5
2023-02-25T14:52:35.687Z,2.6
2023-02-25T15:07:45.366Z,2.3
2023-02-25T15:22:55.445Z,1.7
2023-02-25T15:38:04.564Z,2
2023-02-25T15:53:14.112Z,2.1
2023-02-25T16:08:23.527Z,2.1
2023-02-25T16:23:33.273Z,2
2023-02-25T16:38:42.908Z,2.1
2023-02-25T16:53:52.221Z,2.4
2023-02-25T17:09:01.872Z,2
2023-02-25T17:24:11.331Z,2.6
2023-02-25T17:39:21.160Z,2.5
2023-02-25T17:54:30.991Z,2.6
2023-02-25T18:09:40.787Z,2.4
2023-02-25T18:24:49.451Z,2.3
2023-02-25T18:39:58.580Z,2.3
2023-02-25T18:55:08.627Z,2.8
2023-02-25T19:10:17.654Z,3
2023-02-25T19:25:27.273Z,4
2023-02-25T19:40:36.737Z,5.4
2023-02-25T19:55:46.357Z,4.9
2023-02-25T20:10:55.501Z,6.4
2023-02-25T20:26:04.888Z,5.4
2023-02-25T20:41:14.318Z,2.7
2023-02-25T20:56:24.414Z,2.9
2023-02-25T21:11:35.087Z,3.1
2023-02-25T21:26:44.982Z,2.7
2023-02-25T21:41:54.109Z,2.6
2023-02-25T21:57:03.415Z,2.6
2023-02-25T22:12:12.888Z,2.3
2023-02-25T22:27:23.622Z,2.4
2023-02-25T22:42:33.321Z,3
2023-02-25T22:57:42.873Z,3.3
2023-02-25T23:12:52.486Z,3.7
2023-02-25T23:28:01.835Z,3.4
2023-02-25T23:43:12.947Z,2.4
2023-02-25T23:58:23.726Z,2.6
